createdAt,value
2023-01-01T00:00:02.968Z,19.5
2023-01-01T00:02:03.053Z,19.5
2023-01-01T00:04:02.985Z,19.5
2023-01-01T00:06:02.936Z,19.7
2023-01-01T00:08:05.431Z,19.7
2023-01-01T00:10:03.001Z,19.8
2023-01-01T00:12:02.943Z,19.3
2023-01-01T00:14:06.937Z,19.3
2023-01-01T00:16:03.043Z,19.2
2023-01-01T00:20:03.005Z,19.1
2023-01-01T00:24:02.975Z,19.3
2023-01-01T00:26:13.838Z,19.2
2023-01-01T00:28:13.888Z,19.0
2023-01-01T00:30:13.889Z,18.9
2023-01-01T00:32:19.115Z,19.1
2023-01-01T00:34:13.856Z,19.1
2023-01-01T00:36:13.863Z,19.2
2023-01-01T00:38:13.869Z,19.3
2023-01-01T00:40:13.873Z,19.6
2023-01-01T00:42:13.935Z,19.4
2023-01-01T00:44:13.917Z,19.4
2023-01-01T00:46:13.963Z,19.4
2023-01-01T00:48:13.989Z,19.4
2023-01-01T00:50:13.982Z,19.1
2023-01-01T00:52:13.969Z,19.5
2023-01-01T00:54:14.147Z,19.4
2023-01-01T00:56:14.016Z,19.2
2023-01-01T00:58:13.975Z,19.3
2023-01-01T01:00:13.978Z,19.3
2023-01-01T01:02:14.075Z,19.4
2023-01-01T01:04:13.988Z,19.4
2023-01-01T01:06:13.976Z,19.1
2023-01-01T01:08:13.947Z,19.1
2023-01-01T01:10:13.903Z,19.3
2023-01-01T01:12:18.554Z,19.5
2023-01-01T01:14:13.961Z,19.4
2023-01-01T01:16:13.987Z,19.7
2023-01-01T01:18:14.001Z,19.8
2023-01-01T01:20:13.923Z,19.8
2023-01-01T01:22:14.019Z,19.7
2023-01-01T01:24:13.889Z,19.7
2023-01-01T01:26:14.205Z,19.7
2023-01-01T01:28:13.957Z,19.8
2023-01-01T01:30:13.970Z,19.8
2023-01-01T01:32:13.898Z,19.6
2023-01-01T01:34:16.392Z,19.4
2023-01-01T01:36:14.027Z,18.9
2023-01-01T01:38:13.897Z,19.1
2023-01-01T01:40:13.926Z,19.1
2023-01-01T01:42:13.935Z,19.1
2023-01-01T01:44:13.962Z,19.2
2023-01-01T01:46:13.971Z,19.3
2023-01-01T01:48:14.006Z,19.4
2023-01-01T01:50:13.990Z,19.4
2023-01-01T01:52:13.929Z,19.1
2023-01-01T01:54:13.998Z,19.2
2023-01-01T01:56:43.947Z,19.3
2023-01-01T01:58:43.928Z,19.4
2023-01-01T02:00:43.956Z,19.3
2023-01-01T02:02:44.083Z,19.4
2023-01-01T02:04:43.925Z,19.4
2023-01-01T02:06:44.030Z,19.7
2023-01-01T02:08:44.042Z,19.6
2023-01-01T02:10:43.951Z,19.4
2023-01-01T02:12:43.948Z,19.5
2023-01-01T02:14:43.979Z,19.2
2023-01-01T02:16:43.963Z,19.1
2023-01-01T02:18:43.938Z,19.1
2023-01-01T02:20:44.032Z,19.3
2023-01-01T02:22:43.949Z,19.1
2023-01-01T02:24:43.954Z,19.1
2023-01-01T02:26:43.943Z,19.4
2023-01-01T02:28:43.953Z,19.4
2023-01-01T02:30:43.992Z,19.3
2023-01-01T02:32:43.971Z,19.6
2023-01-01T02:34:43.956Z,20.1
2023-01-01T02:36:43.989Z,19.9
2023-01-01T02:38:43.944Z,19.9
2023-01-01T02:40:44.051Z,20.0
2023-01-01T02:42:43.965Z,20.0
2023-01-01T02:44:43.938Z,20.0
2023-01-01T02:46:43.935Z,19.9
2023-01-01T02:48:43.972Z,19.8
2023-01-01T02:50:43.957Z,19.8
2023-01-01T02:52:43.965Z,19.5
2023-01-01T02:54:44.037Z,19.5
2023-01-01T02:56:43.975Z,19.7
2023-01-01T02:58:43.986Z,19.8
2023-01-01T03:00:43.978Z,19.8
2023-01-01T03:02:48.652Z,19.9
2023-01-01T03:04:44.003Z,19.8
2023-01-01T03:06:43.974Z,19.5
2023-01-01T03:08:43.978Z,19.4
2023-01-01T03:10:43.995Z,19.5
2023-01-01T03:12:44.019Z,19.4
2023-01-01T03:14:44.029Z,19.5
2023-01-01T03:16:43.996Z,19.4
2023-01-01T03:18:43.975Z,19.5
2023-01-01T03:20:44.034Z,19.3
2023-01-01T03:24:44.013Z,19.4
2023-01-01T03:26:44.114Z,19.2
2023-01-01T03:28:44.004Z,19.1
2023-01-01T03:30:43.976Z,19.2
2023-01-01T03:32:43.991Z,19.1
2023-01-01T03:34:43.986Z,18.8
2023-01-01T03:36:44.007Z,19.0
2023-01-01T03:38:44.099Z,19.0
2023-01-01T03:40:43.992Z,18.9
2023-01-01T03:42:44.000Z,18.8
2023-01-01T03:44:44.066Z,18.8
2023-01-01T03:46:44.041Z,18.6
2023-01-01T03:48:44.045Z,18.8
2023-01-01T03:50:44.004Z,19.0
2023-01-01T03:53:14.056Z,19.5
2023-01-01T03:55:14.008Z,19.5
2023-01-01T03:57:14.002Z,19.5
2023-01-01T03:59:14.055Z,19.2
2023-01-01T04:01:14.045Z,19.2
2023-01-01T04:03:14.044Z,19.1
2023-01-01T04:05:14.005Z,19.3
2023-01-01T04:07:15.396Z,19.6
2023-01-01T04:09:14.045Z,19.6
2023-01-01T04:11:13.989Z,19.3
2023-01-01T04:13:14.036Z,19.5
2023-01-01T04:15:14.029Z,19.5
2023-01-01T04:17:14.050Z,19.7
2023-01-01T04:19:14.021Z,19.6
2023-01-01T04:21:14.072Z,19.7
2023-01-01T04:23:14.023Z,19.8
2023-01-01T04:25:14.057Z,19.7
2023-01-01T04:27:14.025Z,19.6
2023-01-01T04:29:14.012Z,19.9
2023-01-01T04:31:14.053Z,20.0
2023-01-01T04:33:14.055Z,19.9
2023-01-01T04:35:14.048Z,19.8
2023-01-01T04:37:14.012Z,19.8
2023-01-01T04:39:14.076Z,19.7
2023-01-01T04:41:14.056Z,19.9
2023-01-01T04:43:14.106Z,19.9
2023-01-01T04:45:14.036Z,20.1
2023-01-01T04:47:14.082Z,20.1
2023-01-01T04:49:14.049Z,19.9
2023-01-01T04:51:14.091Z,19.6
2023-01-01T04:53:14.008Z,19.4
2023-01-01T04:55:14.040Z,19.3
2023-01-01T04:57:14.053Z,19.4
2023-01-01T04:59:14.076Z,19.5
2023-01-01T05:01:14.189Z,19.4
2023-01-01T05:03:14.186Z,19.6
2023-01-01T05:05:14.088Z,19.3
2023-01-01T05:07:14.064Z,19.0
2023-01-01T05:09:14.028Z,18.9
2023-01-01T05:11:14.116Z,18.9
2023-01-01T05:13:14.023Z,18.7
2023-01-01T05:15:14.160Z,18.7
2023-01-01T05:17:14.070Z,18.7
2023-01-01T05:19:14.046Z,18.7
2023-01-01T05:21:14.064Z,18.8
2023-01-01T05:23:14.108Z,18.6
2023-01-01T05:25:14.064Z,18.8
2023-01-01T05:27:14.077Z,18.9
2023-01-01T05:29:16.834Z,19.0
2023-01-01T05:31:14.137Z,19.1
2023-01-01T05:33:14.133Z,19.2
2023-01-01T05:35:14.099Z,19.5
2023-01-01T05:37:14.113Z,19.4
2023-01-01T05:39:14.087Z,19.6
2023-01-01T05:41:14.161Z,19.4
2023-01-01T05:43:14.098Z,19.5
2023-01-01T05:45:44.110Z,19.5
2023-01-01T05:47:44.105Z,19.9
2023-01-01T05:49:44.098Z,20.0
2023-01-01T05:51:44.150Z,20.2
2023-01-01T05:53:44.057Z,20.0
2023-01-01T05:55:44.093Z,19.9
2023-01-01T05:57:44.161Z,19.5
2023-01-01T05:59:44.107Z,19.7
2023-01-01T06:01:46.136Z,20.0
2023-01-01T06:03:44.156Z,20.3
2023-01-01T06:05:44.075Z,20.3
2023-01-01T06:07:48.429Z,20.5
2023-01-01T06:09:44.095Z,20.7
2023-01-01T06:11:44.183Z,20.9
2023-01-01T06:13:44.095Z,21.2
2023-01-01T06:15:44.070Z,21.2
2023-01-01T06:17:44.079Z,21.5
2023-01-01T06:19:44.108Z,21.7
2023-01-01T06:21:44.106Z,21.5
2023-01-01T06:23:44.139Z,21.5
2023-01-01T06:25:44.114Z,21.5
2023-01-01T06:27:44.076Z,21.0
2023-01-01T06:29:44.141Z,21.0
2023-01-01T06:31:44.101Z,20.9
2023-01-01T06:33:44.113Z,21.2
2023-01-01T06:35:44.128Z,21.2
2023-01-01T06:37:44.075Z,21.4
2023-01-01T06:39:44.152Z,21.4
2023-01-01T06:41:44.091Z,21.5
2023-01-01T06:43:44.184Z,21.5
2023-01-01T06:45:44.111Z,21.4
2023-01-01T06:47:44.105Z,21.0
2023-01-01T06:49:44.144Z,21.2
2023-01-01T06:51:44.183Z,21.2
2023-01-01T06:53:44.132Z,21.4
2023-01-01T06:55:44.128Z,21.4
2023-01-01T06:57:44.142Z,21.4
2023-01-01T06:59:44.102Z,21.0
2023-01-01T07:01:44.963Z,21.0
2023-01-01T07:03:44.170Z,20.5
2023-01-01T07:05:44.212Z,20.3
2023-01-01T07:07:44.092Z,20.3
2023-01-01T07:09:44.195Z,20.5
2023-01-01T07:11:44.185Z,20.6
2023-01-01T07:13:44.142Z,20.3
2023-01-01T07:15:44.255Z,20.1
2023-01-01T07:17:44.124Z,20.0
2023-01-01T07:19:44.128Z,19.5
2023-01-01T07:21:44.168Z,19.5
2023-01-01T07:23:44.123Z,19.5
2023-01-01T07:25:44.225Z,19.5
2023-01-01T07:27:55.185Z,19.7
2023-01-01T07:29:55.139Z,19.6
2023-01-01T07:31:55.184Z,19.6
2023-01-01T07:33:55.163Z,19.1
2023-01-01T07:35:55.252Z,19.0
2023-01-01T07:37:55.127Z,18.8
2023-01-01T07:39:55.179Z,18.6
2023-01-01T07:41:55.191Z,18.5
2023-01-01T07:43:55.160Z,18.5
2023-01-01T07:45:55.271Z,18.5
2023-01-01T07:47:55.161Z,18.6
2023-01-01T07:49:55.157Z,18.3
2023-01-01T07:51:55.238Z,18.0
2023-01-01T07:53:57.252Z,17.8
2023-01-01T07:55:55.264Z,17.7
2023-01-01T07:57:55.243Z,17.8
2023-01-01T07:59:55.185Z,17.9
2023-01-01T08:01:55.258Z,17.8
2023-01-01T08:03:55.210Z,18.1
2023-01-01T08:05:55.169Z,18.2
2023-01-01T08:07:55.179Z,18.0
2023-01-01T08:09:55.284Z,17.6
2023-01-01T08:11:55.170Z,17.6
2023-01-01T08:13:55.250Z,17.9
2023-01-01T08:15:55.208Z,18.0
2023-01-01T08:17:55.221Z,17.8
2023-01-01T08:19:55.184Z,18.1
2023-01-01T08:22:25.253Z,17.9
2023-01-01T08:24:25.188Z,18.0
2023-01-01T08:26:25.192Z,18.2
2023-01-01T08:28:25.279Z,18.2
2023-01-01T08:30:25.177Z,18.2
2023-01-01T08:32:25.209Z,18.1
2023-01-01T08:34:25.192Z,18.3
2023-01-01T08:36:25.208Z,18.4
2023-01-01T08:38:25.217Z,18.5
2023-01-01T08:40:25.200Z,18.5
2023-01-01T08:42:25.173Z,18.3
2023-01-01T08:44:25.204Z,18.5
2023-01-01T08:46:25.310Z,18.5
2023-01-01T08:48:30.484Z,18.4
2023-01-01T08:50:25.215Z,18.5
2023-01-01T08:52:25.196Z,18.7
2023-01-01T08:54:25.210Z,18.9
2023-01-01T08:56:25.218Z,19.0
2023-01-01T08:58:25.183Z,18.8
2023-01-01T09:00:25.245Z,18.6
2023-01-01T09:02:25.360Z,18.8
2023-01-01T09:04:25.222Z,18.5
2023-01-01T09:06:25.260Z,18.6
2023-01-01T09:08:25.320Z,18.9
2023-01-01T09:10:25.236Z,19.0
2023-01-01T09:12:25.334Z,18.9
2023-01-01T09:14:25.536Z,18.5
2023-01-01T09:16:25.284Z,18.6
2023-01-01T09:18:25.216Z,18.5
2023-01-01T09:20:25.302Z,18.4
2023-01-01T09:22:25.255Z,18.6
2023-01-01T09:24:25.213Z,18.5
2023-01-01T09:26:25.246Z,18.3
2023-01-01T09:28:26.268Z,18.4
2023-01-01T09:30:26.372Z,18.4
2023-01-01T09:32:25.245Z,18.5
2023-01-01T09:34:25.308Z,18.6
2023-01-01T09:36:25.269Z,18.5
2023-01-01T09:38:25.212Z,18.5
2023-01-01T09:40:25.370Z,18.4
2023-01-01T09:42:25.320Z,18.5
2023-01-01T09:44:25.258Z,18.4
2023-01-01T09:46:31.214Z,18.3
2023-01-01T09:48:25.300Z,18.6
2023-01-01T09:50:25.404Z,18.5
2023-01-01T09:52:25.330Z,18.6
2023-01-01T09:54:25.226Z,18.5
2023-01-01T09:56:25.372Z,18.7
2023-01-01T09:58:25.271Z,18.9
2023-01-01T10:00:25.387Z,19.1
2023-01-01T10:02:25.309Z,19.2
2023-01-01T10:04:25.308Z,19.5
2023-01-01T10:06:25.318Z,19.3
2023-01-01T10:08:25.317Z,19.1
2023-01-01T10:10:25.388Z,19.1
2023-01-01T10:12:25.400Z,19.3
2023-01-01T10:14:25.402Z,19.5
2023-01-01T10:16:55.390Z,19.6
2023-01-01T10:18:55.300Z,19.6
2023-01-01T10:20:55.323Z,19.6
2023-01-01T10:22:55.389Z,19.8
2023-01-01T10:24:55.344Z,19.8
2023-01-01T10:26:55.356Z,19.8
2023-01-01T10:28:55.407Z,19.8
2023-01-01T10:30:55.398Z,19.8
2023-01-01T10:32:55.331Z,19.9
2023-01-01T10:34:55.331Z,19.6
2023-01-01T10:36:55.324Z,19.7
2023-01-01T10:38:55.328Z,20.0
2023-01-01T10:40:55.340Z,20.1
2023-01-01T10:42:55.393Z,20.0
2023-01-01T10:44:55.410Z,20.1
2023-01-01T10:46:55.293Z,20.1
2023-01-01T10:48:55.325Z,20.1
2023-01-01T10:50:55.300Z,20.2
2023-01-01T10:52:55.387Z,20.4
2023-01-01T10:54:55.360Z,20.3
2023-01-01T10:56:55.348Z,20.1
2023-01-01T10:58:55.407Z,20.3
2023-01-01T11:00:55.425Z,20.3
2023-01-01T11:02:55.324Z,20.4
2023-01-01T11:04:55.313Z,20.3
2023-01-01T11:06:55.337Z,20.7
2023-01-01T11:08:55.348Z,20.8
2023-01-01T11:10:55.391Z,20.8
2023-01-01T11:13:05.912Z,20.6
2023-01-01T11:14:55.396Z,20.6
2023-01-01T11:16:55.465Z,20.4
2023-01-01T11:18:55.329Z,20.6
2023-01-01T11:20:55.288Z,20.6
2023-01-01T11:22:55.367Z,20.4
2023-01-01T11:24:55.417Z,20.6
2023-01-01T11:26:55.509Z,20.8
2023-01-01T11:28:55.409Z,20.8
2023-01-01T11:30:55.485Z,21.0
2023-01-01T11:32:55.861Z,21.1
2023-01-01T11:34:55.547Z,21.1
2023-01-01T11:36:55.372Z,20.9
2023-01-01T11:38:55.388Z,20.5
2023-01-01T11:40:55.382Z,20.9
2023-01-01T11:42:58.239Z,20.9
2023-01-01T11:44:55.420Z,20.7
2023-01-01T11:46:55.416Z,20.6
2023-01-01T11:48:55.474Z,20.7
2023-01-01T11:50:55.371Z,20.7
2023-01-01T11:52:55.364Z,20.5
2023-01-01T11:54:55.439Z,20.4
2023-01-01T11:56:55.394Z,20.5
2023-01-01T11:58:55.435Z,20.5
2023-01-01T12:00:55.454Z,20.6
2023-01-01T12:02:55.536Z,20.3
2023-01-01T12:04:55.447Z,20.2
2023-01-01T12:06:55.394Z,20.0
2023-01-01T12:08:55.379Z,19.8
2023-01-01T12:11:25.442Z,19.9
2023-01-01T12:13:25.445Z,19.9
2023-01-01T12:15:25.477Z,19.9
2023-01-01T12:17:25.456Z,20.0
2023-01-01T12:19:25.507Z,20.0
2023-01-01T12:21:25.421Z,20.0
2023-01-01T12:23:25.394Z,19.7
2023-01-01T12:25:25.415Z,19.6
2023-01-01T12:27:25.428Z,19.5
2023-01-01T12:29:25.422Z,19.4
2023-01-01T12:31:25.498Z,19.6
2023-01-01T12:33:25.482Z,19.5
2023-01-01T12:35:25.480Z,19.7
2023-01-01T12:37:09.169Z,20.1
2023-01-01T12:39:09.244Z,20.1
2023-01-01T13:43:11.484Z,19.4
2023-01-01T13:46:12.192Z,19.7
2023-01-01T13:47:39.113Z,19.5
2023-01-01T13:50:10.786Z,19.3
2023-01-01T13:52:10.939Z,19.4
2023-01-01T13:54:10.899Z,19.3
2023-01-01T13:56:11.045Z,19.5
2023-01-01T14:00:21.765Z,19.4
2023-01-01T14:02:22.006Z,19.5
2023-01-01T14:04:21.946Z,19.5
2023-01-01T14:06:00.001Z,19.5
2023-01-01T14:07:40.846Z,19.4
2023-01-01T14:12:53.638Z,19.5
2023-01-01T14:14:53.676Z,19.7
2023-01-01T14:16:53.683Z,19.5
2023-01-01T14:18:53.730Z,19.5
2023-01-01T14:20:53.736Z,19.4
2023-01-01T14:22:53.732Z,19.6
2023-01-01T14:24:53.759Z,19.6
2023-01-01T14:26:53.838Z,19.6
2023-01-01T14:28:53.697Z,19.7
2023-01-01T14:30:53.662Z,19.7
2023-01-01T14:33:23.715Z,20.0
2023-01-01T14:35:23.750Z,20.2
2023-01-01T14:37:23.719Z,20.0
2023-01-01T14:39:27.434Z,20.3
2023-01-01T14:41:23.762Z,20.6
2023-01-01T14:43:23.642Z,20.7
2023-01-01T14:45:23.692Z,20.4
2023-01-01T14:47:23.706Z,20.7
2023-01-01T14:49:24.722Z,20.9
2023-01-01T14:51:23.731Z,20.9
2023-01-01T14:53:23.828Z,20.9
2023-01-01T14:55:23.767Z,20.7
2023-01-01T14:57:23.777Z,21.0
2023-01-01T14:59:23.663Z,20.9
2023-01-01T15:01:23.788Z,20.6
2023-01-01T15:03:23.719Z,20.6
2023-01-01T15:05:23.720Z,20.5
2023-01-01T15:07:23.828Z,20.6
2023-01-01T15:09:23.732Z,20.4
2023-01-01T15:11:28.772Z,20.2
2023-01-01T15:13:23.677Z,20.3
2023-01-01T15:15:23.700Z,20.1
2023-01-01T15:17:23.816Z,20.1
2023-01-01T15:19:23.703Z,20.1
2023-01-01T15:21:23.775Z,20.0
2023-01-01T15:23:23.691Z,19.9
2023-01-01T15:25:23.700Z,19.9
2023-01-01T15:27:23.877Z,19.8
2023-01-01T15:29:23.719Z,19.6
2023-01-01T15:31:23.765Z,19.7
2023-01-01T15:33:23.655Z,19.3
2023-01-01T15:35:30.757Z,19.1
2023-01-01T15:37:23.773Z,19.3
2023-01-01T15:39:23.673Z,19.2
2023-01-01T15:41:23.693Z,19.1
2023-01-01T15:43:23.679Z,19.1
2023-01-01T15:45:23.707Z,19.6
2023-01-01T15:47:23.739Z,19.5
2023-01-01T15:49:23.699Z,19.5
2023-01-01T15:51:23.734Z,19.6
2023-01-01T15:53:23.696Z,19.6
2023-01-01T15:55:23.667Z,19.6
2023-01-01T15:57:23.816Z,19.4
2023-01-01T15:59:23.829Z,19.5
2023-01-01T16:01:23.794Z,19.4
2023-01-01T16:03:23.708Z,19.3
2023-01-01T16:05:23.752Z,19.5
2023-01-01T16:07:23.761Z,19.6
2023-01-01T16:09:23.769Z,19.5
2023-01-01T16:11:23.701Z,19.7
2023-01-01T16:13:23.726Z,19.7
2023-01-01T16:15:23.730Z,19.7
2023-01-01T16:17:23.735Z,19.5
2023-01-01T16:19:23.685Z,19.7
2023-01-01T16:21:23.693Z,19.8
2023-01-01T16:23:23.787Z,19.8
2023-01-01T16:25:53.775Z,19.8
2023-01-01T16:27:53.842Z,19.7
2023-01-01T16:29:54.962Z,19.7
2023-01-01T16:31:53.705Z,19.7
2023-01-01T16:33:53.853Z,19.7
2023-01-01T16:35:53.769Z,20.1
2023-01-01T16:37:53.737Z,20.2
2023-01-01T16:39:53.710Z,20.1
2023-01-01T16:41:53.700Z,20.3
2023-01-01T16:43:53.817Z,20.6
2023-01-01T16:45:54.002Z,20.3
2023-01-01T16:47:53.723Z,20.2
2023-01-01T16:49:53.718Z,19.9
2023-01-01T16:51:53.732Z,19.9
2023-01-01T16:53:53.871Z,20.1
2023-01-01T16:55:53.716Z,20.1
2023-01-01T16:58:13.742Z,20.0
2023-01-01T16:59:53.709Z,20.0
2023-01-01T17:01:53.805Z,20.2
2023-01-01T17:03:53.768Z,20.2
2023-01-01T17:05:53.767Z,19.9
2023-01-01T17:07:53.717Z,19.9
2023-01-01T17:09:53.754Z,19.8
2023-01-01T17:11:53.704Z,19.8
2023-01-01T17:13:53.830Z,19.8
2023-01-01T17:15:53.783Z,20.1
2023-01-01T17:17:53.717Z,20.0
2023-01-01T17:19:53.764Z,20.0
2023-01-01T17:21:53.769Z,20.0
2023-01-01T17:23:53.791Z,20.1
2023-01-01T17:25:53.732Z,20.2
2023-01-01T17:27:53.748Z,20.4
2023-01-01T17:29:53.790Z,20.2
2023-01-01T17:31:53.765Z,20.0
2023-01-01T17:33:53.725Z,20.4
2023-01-01T17:35:53.751Z,20.0
2023-01-01T17:37:53.760Z,20.0
2023-01-01T17:39:53.938Z,20.0
2023-01-01T17:41:53.859Z,19.9
2023-01-01T17:43:53.867Z,19.6
2023-01-01T17:45:53.884Z,19.5
2023-01-01T17:47:53.977Z,19.4
2023-01-01T17:49:53.827Z,19.5
2023-01-01T17:51:53.807Z,19.3
2023-01-01T17:53:53.924Z,19.1
2023-01-01T17:55:54.897Z,19.0
2023-01-01T17:57:53.849Z,19.2
2023-01-01T17:59:53.963Z,19.3
2023-01-01T18:01:53.891Z,19.2
2023-01-01T18:03:53.801Z,19.0
2023-01-01T18:05:53.839Z,19.0
2023-01-01T18:07:53.797Z,19.3
2023-01-01T18:09:53.773Z,19.4
2023-01-01T18:11:53.923Z,19.3
2023-01-01T18:13:53.848Z,19.3
2023-01-01T18:15:53.908Z,19.0
2023-01-01T18:18:23.814Z,19.0
2023-01-01T18:20:23.805Z,18.8
2023-01-01T18:22:23.831Z,18.8
2023-01-01T18:24:23.864Z,18.7
2023-01-01T18:26:23.956Z,18.5
2023-01-01T18:28:23.781Z,18.3
2023-01-01T18:30:23.901Z,18.6
2023-01-01T18:32:23.809Z,18.5
2023-01-01T18:34:24.010Z,18.4
2023-01-01T18:36:23.847Z,18.5
2023-01-01T18:38:23.836Z,18.5
2023-01-01T18:40:23.879Z,18.5
2023-01-01T18:42:23.779Z,18.6
2023-01-01T18:44:23.797Z,18.6
2023-01-01T18:46:23.810Z,18.7
2023-01-01T18:48:23.866Z,18.8
2023-01-01T18:50:23.883Z,18.8
2023-01-01T18:52:23.803Z,18.8
2023-01-01T18:54:23.816Z,18.8
2023-01-01T18:56:23.802Z,18.7
2023-01-01T18:58:23.848Z,18.6
2023-01-01T19:00:23.925Z,18.4
2023-01-01T19:02:24.013Z,18.7
2023-01-01T19:04:23.803Z,18.8
2023-01-01T19:06:23.812Z,18.6
2023-01-01T19:08:23.847Z,18.3
2023-01-01T19:10:23.817Z,18.3
2023-01-01T19:12:23.778Z,18.0
2023-01-01T19:14:23.821Z,18.4
2023-01-01T19:16:24.209Z,18.6
2023-01-01T19:18:23.870Z,18.4
2023-01-01T19:20:23.852Z,18.5
2023-01-01T19:22:23.823Z,18.6
2023-01-01T19:24:23.867Z,18.6
2023-01-01T19:26:23.820Z,18.6
2023-01-01T19:28:23.868Z,19.0
2023-01-01T19:30:23.809Z,19.0
2023-01-01T19:32:23.821Z,19.3
2023-01-01T19:34:23.834Z,19.1
2023-01-01T19:36:23.813Z,19.0
2023-01-01T19:38:23.842Z,19.0
2023-01-01T19:40:23.914Z,18.7
2023-01-01T19:42:23.884Z,18.6
2023-01-01T19:44:25.360Z,18.6
2023-01-01T19:46:24.003Z,19.0
2023-01-01T19:48:23.953Z,19.0
2023-01-01T19:50:23.877Z,19.1
2023-01-01T19:52:23.828Z,18.9
2023-01-01T19:54:23.842Z,19.0
2023-01-01T19:56:23.821Z,19.0
2023-01-01T19:58:23.884Z,19.0
2023-01-01T20:00:23.973Z,19.0
2023-01-01T20:02:45.390Z,18.9
2023-01-01T20:04:23.903Z,19.0
2023-01-01T20:06:23.927Z,19.3
2023-01-01T20:08:23.911Z,19.2
2023-01-01T20:10:53.907Z,19.2
2023-01-01T20:12:53.923Z,19.3
2023-01-01T20:14:53.925Z,19.3
2023-01-01T20:16:53.979Z,19.2
2023-01-01T20:18:54.065Z,19.3
2023-01-01T20:20:53.939Z,19.3
2023-01-01T20:22:53.861Z,19.4
2023-01-01T20:24:53.854Z,19.2
2023-01-01T20:26:54.130Z,19.2
2023-01-01T20:28:53.854Z,19.1
2023-01-01T20:30:53.992Z,19.1
2023-01-01T20:32:54.075Z,18.9
2023-01-01T20:34:54.042Z,18.9
2023-01-01T20:36:53.940Z,18.9
2023-01-01T20:38:54.006Z,18.9
2023-01-01T20:40:53.934Z,19.0
2023-01-01T20:42:53.919Z,19.0
2023-01-01T20:44:54.002Z,18.9
2023-01-01T20:46:53.995Z,18.6
2023-01-01T20:48:54.115Z,18.5
2023-01-01T20:50:35.058Z,18.5
2023-01-01T20:53:05.027Z,18.5
2023-01-01T20:55:05.110Z,18.7
2023-01-01T20:57:05.004Z,18.8
2023-01-01T20:59:34.106Z,18.8
2023-01-01T21:01:05.132Z,19.0
2023-01-01T21:03:05.126Z,19.1
2023-01-01T21:05:05.043Z,18.9
2023-01-01T21:07:05.079Z,19.0
2023-01-01T21:09:05.509Z,19.1
2023-01-01T21:11:05.151Z,19.1
2023-01-01T21:13:05.058Z,19.5
2023-01-01T21:15:05.042Z,19.3
2023-01-01T21:17:05.096Z,19.2
2023-01-01T21:19:05.065Z,19.2
2023-01-01T21:21:05.084Z,19.1
2023-01-01T21:23:05.254Z,19.0
2023-01-01T21:25:40.403Z,19.2
2023-01-01T21:27:05.102Z,19.3
2023-01-01T21:29:05.047Z,19.0
2023-01-01T21:31:05.070Z,19.1
2023-01-01T21:33:05.056Z,19.0
2023-01-01T21:35:05.046Z,19.0
2023-01-01T21:37:05.111Z,19.0
2023-01-01T21:39:05.106Z,19.0
2023-01-01T21:41:05.114Z,19.1
2023-01-01T21:43:05.028Z,19.1
2023-01-01T21:45:05.025Z,19.2
2023-01-01T21:47:05.057Z,19.4
2023-01-01T21:49:05.009Z,19.4
2023-01-01T21:51:05.128Z,19.5
2023-01-01T21:53:05.127Z,19.5
2023-01-01T21:55:05.256Z,19.6
2023-01-01T21:57:05.138Z,19.5
2023-01-01T21:59:05.095Z,19.5
2023-01-01T22:01:05.182Z,19.6
2023-01-01T22:03:05.162Z,19.6
2023-01-01T22:05:05.090Z,19.7
2023-01-01T22:07:17.805Z,19.6
2023-01-01T22:09:05.149Z,19.7
2023-01-01T22:11:05.162Z,19.9
2023-01-01T22:13:05.157Z,20.0
2023-01-01T22:15:05.100Z,20.3
2023-01-01T22:17:05.093Z,20.3
2023-01-01T22:19:05.127Z,20.2
2023-01-01T22:21:05.158Z,20.2
2023-01-01T22:23:05.648Z,20.2
2023-01-01T22:25:05.155Z,20.1
2023-01-01T22:27:05.242Z,20.4
2023-01-01T22:29:05.142Z,20.9
2023-01-01T22:31:05.128Z,20.5
2023-01-01T22:33:05.079Z,20.6
2023-01-01T22:35:05.132Z,20.8
2023-01-01T22:37:05.104Z,20.9
2023-01-01T22:39:05.117Z,20.8
2023-01-01T22:41:05.367Z,20.9
2023-01-01T22:43:05.152Z,21.2
2023-01-01T22:45:05.181Z,21.1
2023-01-01T22:47:05.086Z,21.2
2023-01-01T22:49:35.060Z,21.3
2023-01-01T22:51:35.155Z,21.2
2023-01-01T22:53:35.070Z,21.0
2023-01-01T22:55:35.176Z,21.0
2023-01-01T22:57:35.261Z,21.2
2023-01-01T22:59:35.244Z,21.0
2023-01-01T23:01:35.340Z,20.8
2023-01-01T23:03:35.176Z,20.9
2023-01-01T23:05:35.302Z,21.1
2023-01-01T23:07:41.325Z,20.9
2023-01-01T23:09:35.249Z,20.6
2023-01-01T23:11:35.100Z,20.1
2023-01-01T23:13:35.214Z,20.3
2023-01-01T23:15:35.226Z,20.4
2023-01-01T23:17:35.135Z,20.6
2023-01-01T23:19:35.145Z,20.7
2023-01-01T23:21:35.336Z,20.6
2023-01-01T23:23:35.208Z,20.9
2023-01-01T23:25:35.158Z,20.8
2023-01-01T23:27:35.221Z,20.3
2023-01-01T23:29:35.194Z,20.6
2023-01-01T23:31:35.174Z,20.8
2023-01-01T23:33:35.101Z,20.9
2023-01-01T23:35:35.123Z,20.8
2023-01-01T23:37:35.360Z,20.9
2023-01-01T23:39:35.165Z,20.8
2023-01-01T23:41:35.193Z,20.8
2023-01-01T23:43:39.334Z,21.1
2023-01-01T23:45:35.218Z,21.1
2023-01-01T23:47:35.120Z,20.9
2023-01-01T23:49:35.115Z,20.7
2023-01-01T23:51:35.173Z,21.0
2023-01-01T23:53:35.235Z,21.0
2023-01-01T23:55:35.158Z,21.0
2023-01-01T23:57:35.219Z,20.8
2023-01-01T23:59:35.309Z,20.9
